Time;durP1;ratioP1;P1;durP2;ratioP2;P2;SDS_P1;SDS_P2;PMS_P1;PMS_P2;Temp;Humidity;BMP_temperature;BMP_pressure;BME280_temperature;BME280_humidity;BME280_pressure;Samples;Min_cycle;Max_cycle;Signal;HPM_P1;HPM_P2
2022/11/17 00:00:11;;;;;;;;;;;;;;;-144.99;87.51;52552.03;4998511;28;20323;-72
2022/11/17 00:02:38;;;;;;;;;;;;;;;-144.99;87.07;52594.84;5012215;28;19986;-74
2022/11/17 00:05:06;;;;;;;;;;;;;;;-144.99;87.77;52578.53;5010867;28;20728;-74
2022/11/17 00:07:33;;;;;;;;;;;;;;;-144.99;87.31;52590.78;5017574;28;20405;-73
2022/11/17 00:09:59;;;;;;;;;;;;;;;-144.99;87.30;52539.81;5008991;28;20741;-73
2022/11/17 00:15:10;;;;;;;;;;;;;;;-144.99;86.51;52562.25;5033110;28;19997;-75
2022/11/17 00:17:37;;;;;;;;;;;;;;;-144.99;86.56;52580.59;5020064;28;19929;-74
2022/11/17 00:22:49;;;;;;;;;;;;;;;-144.99;86.79;52566.31;5033174;28;20070;-72
2022/11/17 00:25:15;;;;;;;;;;;;;;;-144.99;87.18;52578.53;5033370;28;19948;-73
2022/11/17 00:27:42;;;;;;;;;;;;;;;-144.99;87.21;52564.28;5014441;28;20017;-73
2022/11/17 00:34:03;;;;;;;;;;;;;;;-144.99;87.26;52594.84;5019278;28;20002;-72
2022/11/17 00:35:44;;;;;;;;;;;;;;;-144.99;86.63;52539.81;5011480;28;19954;-68
2022/11/17 00:38:15;;;;;;;;;;;;;;;-144.99;86.82;52525.56;5011353;28;20402;-71
2022/11/17 00:40:42;;;;;;;;;;;;;;;-144.99;86.60;52586.69;5010622;28;19992;-69
2022/11/17 00:43:08;;;;;;;;;;;;;;;-144.99;87.50;52541.84;5021539;28;19963;-71
2022/11/17 00:45:35;;;;;;;;;;;;;;;-144.99;86.57;52572.44;5007906;28;20371;-69
2022/11/17 00:48:01;;;;;;;;;;;;;;;-144.99;86.95;52576.50;5014591;28;20307;-66
2022/11/17 00:50:28;;;;;;;;;;;;;;;-144.99;86.58;52607.09;5011385;28;19994;-65
2022/11/17 00:52:54;;;;;;;;;;;;;;;-144.99;87.59;52558.16;5016095;28;20293;-66
2022/11/17 00:55:22;;;;;;;;;;;;;;;-144.99;87.16;52560.19;5018144;28;19964;-68
2022/11/17 00:57:49;;;;;;;;;;;;;;;-144.99;87.83;52578.53;5015427;28;20478;-68
2022/11/17 01:00:15;;;;;;;;;;;;;;;-144.99;86.86;52558.16;5015336;28;19943;-70
2022/11/17 01:02:42;;;;;;;;;;;;;;;-144.99;87.02;52531.66;5025671;28;19979;-68
2022/11/17 01:05:08;;;;;;;;;;;;;;;-144.99;87.07;52558.16;5016193;28;20381;-68
2022/11/17 01:07:35;;;;;;;;;;;;;;;-144.99;87.34;52554.09;5013517;28;19972;-68
2022/11/17 01:10:01;;;;;;;;;;;;;;;-144.99;86.53;52582.63;5011888;28;20024;-67
2022/11/17 01:12:29;;;;;;;;;;;;;;;-144.99;86.24;52558.16;5009375;28;20007;-70
2022/11/17 01:14:56;;;;;;;;;;;;;;;-144.99;86.75;52525.56;5022790;28;20011;-69
2022/11/17 01:17:22;;;;;;;;;;;;;;;-144.99;86.28;52578.53;5029300;28;19939;-68
2022/11/17 01:19:49;;;;;;;;;;;;;;;-144.99;86.90;52600.97;5013854;28;20007;-71
2022/11/17 01:22:15;;;;;;;;;;;;;;;-144.99;87.13;52586.69;5019793;28;19957;-68
2022/11/17 01:24:43;;;;;;;;;;;;;;;-144.99;87.61;52568.34;5020906;28;19951;-68
2022/11/17 01:27:09;;;;;;;;;;;;;;;-144.99;87.36;52586.69;5021042;28;19946;-68
2022/11/17 01:29:37;;;;;;;;;;;;;;;-144.99;87.42;52531.66;5019402;28;19945;-68
2022/11/17 01:32:04;;;;;;;;;;;;;;;-144.99;87.09;52574.47;5020140;28;19987;-68
2022/11/17 01:34:30;;;;;;;;;;;;;;;-144.99;87.84;52554.09;5018333;28;20000;-67
2022/11/17 01:39:52;;;;;;;;;;;;;;;-144.99;86.82;52562.25;4971848;28;20044;-70
2022/11/17 01:42:19;;;;;;;;;;;;;;;-144.99;87.64;52590.78;5004462;28;20075;-72
2022/11/17 01:44:57;;;;;;;;;;;;;;;-144.99;87.23;52609.13;5016161;28;20386;-70
2022/11/17 01:47:27;;;;;;;;;;;;;;;-144.99;88.56;52578.53;5024165;28;20446;-72
2022/11/17 01:49:56;;;;;;;;;;;;;;;-144.99;87.23;52558.16;5014088;28;19983;-74
2022/11/17 01:52:23;;;;;;;;;;;;;;;-144.99;87.16;52564.28;5013796;28;20142;-74
2022/11/17 01:54:51;;;;;;;;;;;;;;;-144.99;88.46;52566.31;5014358;28;20058;-73
2022/11/17 01:57:20;;;;;;;;;;;;;;;-144.99;87.33;52552.03;5001568;28;19944;-69
2022/11/17 01:59:49;;;;;;;;;;;;;;;-144.99;86.92;52574.47;5013599;28;20083;-69
2022/11/17 02:02:17;;;;;;;;;;;;;;;-144.99;87.36;52550.00;5011898;28;20007;-70
2022/11/17 02:04:50;;;;;;;;;;;;;;;-144.99;88.42;52566.31;5026411;28;19936;-71
2022/11/17 02:07:18;;;;;;;;;;;;;;;-144.99;88.46;52570.38;5004559;28;19944;-68
2022/11/17 02:09:46;;;;;;;;;;;;;;;-144.99;88.00;52596.88;5009738;28;20344;-68
2022/11/17 02:12:13;;;;;;;;;;;;;;;-144.99;87.96;52562.25;5013213;28;20023;-69
2022/11/17 02:14:40;;;;;;;;;;;;;;;-144.99;88.27;52539.81;5012769;28;20461;-69
2022/11/17 02:17:06;;;;;;;;;;;;;;;-144.99;87.61;52578.53;5027884;28;19942;-69
2022/11/17 02:19:36;;;;;;;;;;;;;;;-144.99;87.30;52562.25;5020870;28;20333;-69
2022/11/17 02:22:09;;;;;;;;;;;;;;;-144.99;87.49;52574.47;5012248;28;19960;-68
2022/11/17 02:24:44;;;;;;;;;;;;;;;-144.99;87.77;52578.53;5016769;28;20389;-69
2022/11/17 02:27:34;;;;;;;;;;;;;;;-144.99;87.42;52562.25;5015044;28;19943;-69
2022/11/17 02:30:03;;;;;;;;;;;;;;;-144.99;87.65;52578.53;5002688;28;20500;-70
2022/11/17 02:32:35;;;;;;;;;;;;;;;-144.99;87.53;52594.84;5012241;28;19987;-69
2022/11/17 02:35:09;;;;;;;;;;;;;;;-144.99;87.60;52611.16;5019402;28;20056;-69
2022/11/17 02:37:41;;;;;;;;;;;;;;;-144.99;87.71;52578.53;5012967;28;20376;-74
2022/11/17 02:40:10;;;;;;;;;;;;;;;-144.99;88.11;52545.94;5012043;28;20426;-72
2022/11/17 02:45:25;;;;;;;;;;;;;;;-144.99;88.04;52603.00;5022278;28;20042;-74
2022/11/17 02:47:54;;;;;;;;;;;;;;;-144.99;88.06;52572.44;5004678;28;20424;-72
2022/11/17 02:50:22;;;;;;;;;;;;;;;-144.99;87.33;52603.00;5010055;28;19949;-72
2022/11/17 02:52:48;;;;;;;;;;;;;;;-144.99;88.14;52570.38;5024205;28;20348;-73
2022/11/17 02:55:15;;;;;;;;;;;;;;;-144.99;87.24;52566.31;5022235;28;20074;-71
2022/11/17 02:57:41;;;;;;;;;;;;;;;-144.99;87.48;52598.94;5032076;28;19939;-71
2022/11/17 03:00:10;;;;;;;;;;;;;;;-144.99;87.28;52568.34;5044103;28;19961;-71
2022/11/17 03:02:44;;;;;;;;;;;;;;;-144.99;87.40;52594.84;5026227;28;20022;-71
2022/11/17 03:05:14;;;;;;;;;;;;;;;-144.99;86.79;52590.78;5012678;28;19984;-71
2022/11/17 03:07:48;;;;;;;;;;;;;;;-144.99;86.63;52594.84;5024410;28;20197;-70
2022/11/17 03:10:17;;;;;;;;;;;;;;;-144.99;87.20;52550.00;5000086;28;19977;-68
2022/11/17 03:12:47;;;;;;;;;;;;;;;-144.99;87.11;52554.09;5012169;28;19946;-70
2022/11/17 03:15:21;;;;;;;;;;;;;;;-144.99;86.74;52574.47;5018197;28;20409;-68
2022/11/17 03:17:54;;;;;;;;;;;;;;;-144.99;87.04;52554.09;5015564;28;20481;-69
2022/11/17 03:20:24;;;;;;;;;;;;;;;-144.99;86.90;52605.03;5011899;28;19952;-71
2022/11/17 03:22:54;;;;;;;;;;;;;;;-144.99;87.03;52603.00;5006550;28;20007;-70
2022/11/17 03:25:23;;;;;;;;;;;;;;;-144.99;86.72;52574.47;5026158;28;20002;-68
2022/11/17 03:27:52;;;;;;;;;;;;;;;-144.99;87.49;52566.31;5011176;28;19971;-68
2022/11/17 03:30:21;;;;;;;;;;;;;;;-144.99;86.79;52566.31;5011237;28;20002;-68
2022/11/17 03:32:50;;;;;;;;;;;;;;;-144.99;87.90;52554.09;5010244;28;20032;-69
2022/11/17 03:35:18;;;;;;;;;;;;;;;-144.99;87.09;52558.16;5024329;28;20322;-74
2022/11/17 03:37:46;;;;;;;;;;;;;;;-144.99;87.30;52629.50;5012581;28;19946;-72
2022/11/17 03:40:13;;;;;;;;;;;;;;;-144.99;87.21;52590.78;5012903;28;20418;-71
2022/11/17 03:42:42;;;;;;;;;;;;;;;-144.99;87.20;52584.66;5032939;28;19951;-70
2022/11/17 03:45:11;;;;;;;;;;;;;;;-144.99;87.33;52533.69;5031302;28;19941;-69
2022/11/17 03:47:37;;;;;;;;;;;;;;;-144.99;86.68;52570.38;5021003;28;20473;-70
2022/11/17 03:50:11;;;;;;;;;;;;;;;-144.99;88.05;52605.03;5011424;28;19953;-69
2022/11/17 03:52:38;;;;;;;;;;;;;;;-144.99;86.59;52574.47;5020216;28;20027;-70
2022/11/17 03:55:05;;;;;;;;;;;;;;;-144.99;86.71;52562.25;5020746;28;19955;-68
2022/11/17 03:57:34;;;;;;;;;;;;;;;-144.99;87.98;52582.63;5018952;28;20365;-69
2022/11/17 04:00:03;;;;;;;;;;;;;;;-144.99;86.88;52586.69;5011415;28;20286;-68
2022/11/17 04:02:29;;;;;;;;;;;;;;;-144.99;87.25;52623.38;5011225;28;19964;-68
2022/11/17 04:05:05;;;;;;;;;;;;;;;-144.99;87.44;52594.84;5009684;28;20311;-69
2022/11/17 04:07:33;;;;;;;;;;;;;;;-144.99;87.28;52586.69;5015442;28;20396;-69
2022/11/17 04:10:00;;;;;;;;;;;;;;;-144.99;86.93;52598.94;5013757;28;19989;-69
2022/11/17 04:17:54;;;;;;;;;;;;;;;-144.99;85.97;52562.25;5012586;28;20070;-70
2022/11/17 04:20:21;;;;;;;;;;;;;;;-144.99;86.07;52611.16;5011545;28;20354;-70
2022/11/17 04:23:05;;;;;;;;;;;;;;;-144.99;85.78;52586.69;5016866;28;19967;-71
2022/11/17 04:31:00;;;;;;;;;;;;;;;-144.99;85.12;52592.81;5010339;28;20460;-70
2022/11/17 04:33:27;;;;;;;;;;;;;;;-144.99;85.27;52635.63;5005708;28;19939;-71
2022/11/17 04:35:54;;;;;;;;;;;;;;;-144.99;86.39;52590.78;5019052;28;19954;-69
2022/11/17 04:38:21;;;;;;;;;;;;;;;-144.99;85.79;52605.03;5011106;28;19985;-69
2022/11/17 04:43:28;;;;;;;;;;;;;;;-144.99;85.37;52582.63;5005211;28;20617;-73
2022/11/17 04:45:58;;;;;;;;;;;;;;;-144.99;85.34;52627.47;5007106;28;19949;-73
2022/11/17 04:48:24;;;;;;;;;;;;;;;-144.99;85.27;52582.63;5014697;28;20360;-73
2022/11/17 04:50:53;;;;;;;;;;;;;;;-144.99;86.19;52594.84;5010267;28;19952;-73
2022/11/17 04:53:19;;;;;;;;;;;;;;;-144.99;85.43;52607.09;5008007;28;19937;-70
2022/11/17 04:55:47;;;;;;;;;;;;;;;-144.99;85.77;52584.66;5010545;28;20136;-69
2022/11/17 04:58:14;;;;;;;;;;;;;;;-144.99;85.81;52603.00;5012647;28;19945;-70
2022/11/17 05:00:40;;;;;;;;;;;;;;;-144.99;85.34;52572.44;5009173;28;20020;-69
2022/11/17 05:03:07;;;;;;;;;;;;;;;-144.99;85.39;52558.16;5013071;28;19946;-69
2022/11/17 05:05:34;;;;;;;;;;;;;;;-144.99;85.66;52586.69;5030179;28;19969;-67
2022/11/17 05:08:00;;;;;;;;;;;;;;;-144.99;85.75;52568.34;5034966;28;19961;-68
2022/11/17 05:13:23;;;;;;;;;;;;;;;-144.99;85.38;52603.00;5007907;28;19944;-72
2022/11/17 05:18:36;;;;;;;;;;;;;;;-144.99;85.50;52590.78;5020008;28;20409;-73
2022/11/17 05:21:02;;;;;;;;;;;;;;;-144.99;85.35;52594.84;5012223;28;20017;-74
2022/11/17 05:26:13;;;;;;;;;;;;;;;-144.99;85.52;52572.44;5020836;28;19968;-72
2022/11/17 05:31:16;;;;;;;;;;;;;;;-144.99;85.41;52609.13;5023206;28;20098;-69
2022/11/17 05:33:43;;;;;;;;;;;;;;;-144.99;85.00;52582.63;5032759;28;19972;-69
2022/11/17 05:36:10;;;;;;;;;;;;;;;-144.99;85.58;52574.47;5034670;28;20010;-68
2022/11/17 05:38:36;;;;;;;;;;;;;;;-144.99;85.03;52603.00;5030010;28;20020;-70
2022/11/17 05:41:03;;;;;;;;;;;;;;;-144.99;85.42;52594.84;5032487;28;19958;-69
2022/11/17 05:43:29;;;;;;;;;;;;;;;-144.99;84.89;52566.31;5034553;28;20026;-68
2022/11/17 05:45:56;;;;;;;;;;;;;;;-144.99;85.91;52586.69;5041362;28;20068;-68
2022/11/17 05:48:24;;;;;;;;;;;;;;;-144.99;85.65;52578.53;5032752;28;19937;-69
2022/11/17 05:50:51;;;;;;;;;;;;;;;-144.99;85.98;52574.47;5030921;28;20074;-68
2022/11/17 05:53:18;;;;;;;;;;;;;;;-144.99;85.35;52590.78;5038890;28;19986;-69
2022/11/17 05:55:44;;;;;;;;;;;;;;;-144.99;85.24;52550.00;5031250;28;19994;-72
2022/11/17 05:58:14;;;;;;;;;;;;;;;-144.99;85.59;52611.16;5030424;28;20444;-70
2022/11/17 06:00:41;;;;;;;;;;;;;;;-144.99;85.07;52586.69;5032060;28;19996;-67
2022/11/17 06:03:09;;;;;;;;;;;;;;;-144.99;85.75;52623.38;5032449;28;19943;-69
2022/11/17 06:05:36;;;;;;;;;;;;;;;-144.99;85.02;52594.84;5038460;28;20337;-75
2022/11/17 06:08:03;;;;;;;;;;;;;;;-144.99;85.54;52582.63;5034706;28;20036;-75
2022/11/17 06:10:30;;;;;;;;;;;;;;;-144.99;85.60;52603.00;5034801;28;19988;-74
2022/11/17 06:12:56;;;;;;;;;;;;;;;-144.99;84.63;52611.16;5033398;28;20701;-74
2022/11/17 06:15:23;;;;;;;;;;;;;;;-144.99;84.96;52586.69;5032793;28;20061;-76
2022/11/17 06:17:51;;;;;;;;;;;;;;;-144.99;84.90;52594.84;5044477;28;19987;-82
2022/11/17 06:20:19;;;;;;;;;;;;;;;-144.99;84.99;52596.88;5039607;28;19954;-80
2022/11/17 06:22:48;;;;;;;;;;;;;;;-144.99;84.84;52584.66;4687092;28;10000352;-81
2022/11/17 06:25:15;;;;;;;;;;;;;;;-144.99;84.54;52590.78;5040933;28;20361;-77
2022/11/17 06:27:42;;;;;;;;;;;;;;;-144.99;84.56;52582.63;5038191;28;20060;-76
2022/11/17 06:30:08;;;;;;;;;;;;;;;-144.99;84.49;52586.69;5028634;28;19989;-76
2022/11/17 06:32:36;;;;;;;;;;;;;;;-144.99;84.40;52603.00;5030059;28;19952;-71
2022/11/17 06:35:03;;;;;;;;;;;;;;;-144.99;84.15;52598.94;5028453;28;20178;-70
2022/11/17 06:37:30;;;;;;;;;;;;;;;-144.99;84.52;52570.38;5035545;28;20443;-70
2022/11/17 06:39:58;;;;;;;;;;;;;;;-144.99;84.62;52568.34;5034180;28;19940;-70
2022/11/17 06:45:05;;;;;;;;;;;;;;;-144.99;84.52;52598.94;5029406;28;19940;-69
2022/11/17 06:47:32;;;;;;;;;;;;;;;-144.99;84.53;52594.84;5036511;28;19943;-70
2022/11/17 06:49:58;;;;;;;;;;;;;;;-144.99;84.45;52584.66;5027544;28;19953;-69
2022/11/17 06:52:25;;;;;;;;;;;;;;;-144.99;84.59;52594.84;5034450;28;20541;-70
2022/11/17 06:54:51;;;;;;;;;;;;;;;-144.99;85.54;52623.38;5026347;28;19986;-69
2022/11/17 06:57:19;;;;;;;;;;;;;;;-144.99;84.47;52582.63;5040131;28;20766;-69
2022/11/17 06:59:45;;;;;;;;;;;;;;;-144.99;84.94;52574.47;5027320;28;20353;-69
2022/11/17 07:02:12;;;;;;;;;;;;;;;-144.99;84.96;52590.78;5027249;28;19964;-68
2022/11/17 07:04:38;;;;;;;;;;;;;;;-144.99;84.49;52580.59;5025990;28;20534;-68
2022/11/17 07:07:05;;;;;;;;;;;;;;;-144.99;84.84;52594.84;5036737;28;20041;-68
2022/11/17 07:09:31;;;;;;;;;;;;;;;-144.99;84.51;52572.44;5039525;28;20050;-70
2022/11/17 07:11:58;;;;;;;;;;;;;;;-144.99;84.88;52619.31;5026732;28;20399;-69
2022/11/17 07:14:26;;;;;;;;;;;;;;;-144.99;84.66;52598.94;5027386;28;19995;-69
2022/11/17 07:16:52;;;;;;;;;;;;;;;-144.99;85.00;52576.50;5030176;28;20520;-69
2022/11/17 07:19:18;;;;;;;;;;;;;;;-144.99;84.44;52603.00;5033969;28;20015;-69
2022/11/17 07:21:45;;;;;;;;;;;;;;;-144.99;84.60;52582.63;5021926;28;20138;-70
2022/11/17 07:24:11;;;;;;;;;;;;;;;-144.99;84.85;52594.84;5036749;28;19944;-69
2022/11/17 07:26:38;;;;;;;;;;;;;;;-144.99;84.88;52586.69;5030167;28;20418;-69
2022/11/17 07:29:04;;;;;;;;;;;;;;;-144.99;84.71;52598.94;5027645;28;20020;-69
2022/11/17 07:31:34;;;;;;;;;;;;;;;-144.99;84.82;52570.38;5038274;28;19998;-69
2022/11/17 07:34:00;;;;;;;;;;;;;;;-144.99;84.49;52590.78;5029299;28;20000;-69
2022/11/17 07:36:27;;;;;;;;;;;;;;;-144.99;84.77;52594.84;5030657;28;20070;-69
2022/11/17 07:38:53;;;;;;;;;;;;;;;-144.99;85.24;52603.00;5027292;28;19985;-69
2022/11/17 07:41:20;;;;;;;;;;;;;;;-144.99;84.91;52598.94;5026425;28;20052;-69
2022/11/17 07:43:46;;;;;;;;;;;;;;;-144.99;84.91;52584.66;5023228;28;20038;-69
2022/11/17 07:46:13;;;;;;;;;;;;;;;-144.99;84.60;52635.63;5035043;28;19990;-69
2022/11/17 07:48:42;;;;;;;;;;;;;;;-144.99;84.94;52590.78;5012708;28;20043;-70
2022/11/17 07:51:08;;;;;;;;;;;;;;;-144.99;84.94;52594.84;5025997;28;20412;-69
2022/11/17 07:53:35;;;;;;;;;;;;;;;-144.99;84.59;52582.63;5037926;28;20023;-68
2022/11/17 07:56:02;;;;;;;;;;;;;;;-144.99;84.77;52594.84;5037281;28;20075;-69
2022/11/17 07:58:29;;;;;;;;;;;;;;;-144.99;84.74;52586.69;5027515;28;20041;-69
2022/11/17 08:00:55;;;;;;;;;;;;;;;-144.99;84.22;52582.63;5028235;28;20188;-69
2022/11/17 08:03:23;;;;;;;;;;;;;;;-144.99;84.84;52582.63;5026004;28;20031;-69
2022/11/17 08:05:52;;;;;;;;;;;;;;;-144.99;84.80;52586.69;5031521;28;19997;-68
2022/11/17 08:08:18;;;;;;;;;;;;;;;-144.99;84.50;52588.75;5032050;28;20269;-68
2022/11/17 08:10:45;;;;;;;;;;;;;;;-144.99;84.79;52615.25;5026762;28;19965;-70
2022/11/17 08:13:12;;;;;;;;;;;;;;;-144.99;84.84;52594.84;5025673;28;20293;-69
2022/11/17 08:15:39;;;;;;;;;;;;;;;-144.99;85.01;52568.34;5032807;28;19965;-70
2022/11/17 08:18:06;;;;;;;;;;;;;;;-144.99;84.77;52590.78;5033626;28;20047;-70
2022/11/17 08:20:32;;;;;;;;;;;;;;;-144.99;84.75;52607.09;5025745;28;20078;-70
2022/11/17 08:23:02;;;;;;;;;;;;;;;-144.99;85.16;52598.94;5024911;28;20265;-70
2022/11/17 08:25:28;;;;;;;;;;;;;;;-144.99;84.84;52603.00;5036424;28;20020;-70
2022/11/17 08:27:55;;;;;;;;;;;;;;;-144.99;84.84;52603.00;5030028;28;19998;-70
2022/11/17 08:30:22;;;;;;;;;;;;;;;-144.99;85.44;52594.84;5033287;28;19949;-70
2022/11/17 08:32:50;;;;;;;;;;;;;;;-144.99;84.82;52598.94;5031538;28;20479;-69
2022/11/17 08:35:17;;;;;;;;;;;;;;;-144.99;85.24;52613.19;5026439;28;20006;-69
2022/11/17 08:37:43;;;;;;;;;;;;;;;-144.99;85.49;52603.00;5033732;28;20031;-69
2022/11/17 08:40:12;;;;;;;;;;;;;;;-144.99;85.00;52598.94;5025621;28;19949;-69
2022/11/17 08:42:39;;;;;;;;;;;;;;;-144.99;85.49;52537.78;5025329;28;19995;-70
2022/11/17 08:45:06;;;;;;;;;;;;;;;-144.99;85.60;52586.69;5033346;28;19985;-69
2022/11/17 08:47:33;;;;;;;;;;;;;;;-144.99;86.32;52562.25;5037083;28;20279;-69
2022/11/17 08:49:59;;;;;;;;;;;;;;;-144.99;85.86;52564.28;5028427;28;20039;-69
2022/11/17 08:52:26;;;;;;;;;;;;;;;-144.99;86.15;52576.50;5033920;28;20230;-68
2022/11/17 08:54:53;;;;;;;;;;;;;;;-144.99;86.12;52576.50;5027143;28;20046;-69
2022/11/17 08:57:21;;;;;;;;;;;;;;;-144.99;86.17;52586.69;5032698;28;19964;-69
2022/11/17 08:59:48;;;;;;;;;;;;;;;-144.99;86.52;52582.63;5035209;28;20034;-69
2022/11/17 09:02:14;;;;;;;;;;;;;;;-144.99;86.02;52607.09;5032887;28;19957;-68
2022/11/17 09:04:41;;;;;;;;;;;;;;;-144.99;86.97;52611.16;5025812;28;20729;-70
2022/11/17 09:07:07;;;;;;;;;;;;;;;-144.99;86.53;52590.78;5031519;28;20452;-70
2022/11/17 09:09:33;;;;;;;;;;;;;;;-144.99;86.54;52558.16;5033426;28;19953;-70
2022/11/17 09:12:00;;;;;;;;;;;;;;;-144.99;86.70;52586.69;5025912;28;20019;-70
2022/11/17 09:14:28;;;;;;;;;;;;;;;-144.99;86.42;52590.78;5027227;28;20016;-70
2022/11/17 09:16:55;;;;;;;;;;;;;;;-144.99;86.30;52611.16;5036894;28;20083;-70
2022/11/17 09:19:21;;;;;;;;;;;;;;;-144.99;86.63;52574.47;5016539;28;20014;-69
2022/11/17 09:21:48;;;;;;;;;;;;;;;-144.99;86.97;52572.44;5028893;28;20047;-69
2022/11/17 09:24:14;;;;;;;;;;;;;;;-144.99;87.62;52607.09;5029944;28;20438;-69
2022/11/17 09:26:41;;;;;;;;;;;;;;;-144.99;87.23;52615.25;5047859;28;19961;-69
2022/11/17 09:29:09;;;;;;;;;;;;;;;-144.99;86.98;52596.88;5029736;28;19975;-70
2022/11/17 09:31:37;;;;;;;;;;;;;;;-144.99;86.85;52592.81;5040629;28;19960;-70
2022/11/17 09:34:04;;;;;;;;;;;;;;;-144.99;87.01;52584.66;5028529;28;20032;-70
2022/11/17 09:36:30;;;;;;;;;;;;;;;-144.99;86.84;52619.31;5036737;28;20337;-70
2022/11/17 09:38:56;;;;;;;;;;;;;;;-144.99;86.83;52576.50;5040611;28;19991;-70
2022/11/17 09:41:25;;;;;;;;;;;;;;;-144.99;86.85;52566.31;5015689;28;20076;-70
2022/11/17 09:43:57;;;;;;;;;;;;;;;-144.99;86.63;52615.25;5017589;28;20260;-68
2022/11/17 09:46:27;;;;;;;;;;;;;;;-144.99;87.08;52590.78;5029694;28;20241;-70
2022/11/17 09:48:58;;;;;;;;;;;;;;;-144.99;87.25;52570.38;5035525;28;20013;-70
2022/11/17 09:51:26;;;;;;;;;;;;;;;-144.99;87.75;52582.63;5027341;28;19990;-70
2022/11/17 09:53:54;;;;;;;;;;;;;;;-144.99;86.96;52619.31;5029650;28;20154;-70
2022/11/17 09:56:21;;;;;;;;;;;;;;;-144.99;87.67;52558.16;5024633;28;20050;-70
2022/11/17 09:58:50;;;;;;;;;;;;;;;-144.99;88.13;52574.47;5032002;28;19949;-70
2022/11/17 10:01:18;;;;;;;;;;;;;;;-144.99;87.56;52566.31;5035382;28;20436;-70
2022/11/17 10:03:46;;;;;;;;;;;;;;;-144.99;87.90;52537.78;5028392;28;20231;-71
2022/11/17 10:06:15;;;;;;;;;;;;;;;-144.99;87.45;52582.63;5022921;28;19951;-70
2022/11/17 10:08:45;;;;;;;;;;;;;;;-144.99;86.93;52562.25;5029643;28;19978;-70
2022/11/17 10:11:32;;;;;;;;;;;;;;;-144.99;87.04;52613.19;5038560;28;20053;-70
2022/11/17 10:13:59;;;;;;;;;;;;;;;-144.99;87.01;52578.53;5033449;28;20119;-69
2022/11/17 10:16:25;;;;;;;;;;;;;;;-144.99;87.02;52586.69;5045344;28;20015;-69
2022/11/17 10:18:52;;;;;;;;;;;;;;;-144.99;86.85;52607.09;5030363;28;20279;-70
2022/11/17 10:21:20;;;;;;;;;;;;;;;-144.99;87.63;52611.16;5034300;28;19961;-70
2022/11/17 10:23:54;;;;;;;;;;;;;;;-144.99;89.20;52578.53;5033898;28;20045;-70
2022/11/17 10:26:21;;;;;;;;;;;;;;;-144.99;89.56;52613.19;5027289;28;20381;-70
2022/11/17 10:28:48;;;;;;;;;;;;;;;-144.99;90.74;52574.47;5027535;28;20081;-71
2022/11/17 10:31:15;;;;;;;;;;;;;;;-144.99;91.67;52594.84;5036256;28;20159;-71
2022/11/17 10:33:43;;;;;;;;;;;;;;;-144.99;91.34;52574.47;5031613;28;20228;-70
2022/11/17 10:36:15;;;;;;;;;;;;;;;-144.99;92.19;52570.38;5027954;28;19962;-70
2022/11/17 10:38:45;;;;;;;;;;;;;;;-144.99;92.18;52619.31;5038987;28;19947;-70
2022/11/17 10:41:15;;;;;;;;;;;;;;;-144.99;93.06;52598.94;5035573;28;19987;-70
2022/11/17 10:43:46;;;;;;;;;;;;;;;-144.99;93.38;52590.78;5038768;28;20031;-70
2022/11/17 10:46:15;;;;;;;;;;;;;;;-144.99;93.87;52598.94;5036096;28;20035;-69
2022/11/17 10:48:53;;;;;;;;;;;;;;;-144.99;93.91;52574.47;5014225;28;20447;-70
2022/11/17 10:51:21;;;;;;;;;;;;;;;-144.99;95.30;52574.47;5029088;28;20007;-71
2022/11/17 10:54:00;;;;;;;;;;;;;;;-144.99;93.98;52607.09;5029154;28;20210;-71
2022/11/17 10:56:27;;;;;;;;;;;;;;;-144.99;94.23;52566.31;5033071;28;20053;-71
2022/11/17 10:58:56;;;;;;;;;;;;;;;-144.99;95.20;52564.28;5026910;28;19951;-70
2022/11/17 11:01:27;;;;;;;;;;;;;;;-144.99;95.30;52586.69;5040495;28;19957;-71
2022/11/17 11:03:54;;;;;;;;;;;;;;;-144.99;95.87;52521.47;5027345;28;20062;-71
2022/11/17 11:06:25;;;;;;;;;;;;;;;-144.99;96.17;52576.50;5027464;28;20499;-71
2022/11/17 11:08:56;;;;;;;;;;;;;;;-144.99;96.28;52545.94;5038948;28;19943;-70
2022/11/17 11:11:42;;;;;;;;;;;;;;;-144.99;96.11;52570.38;5036808;28;20032;-71
2022/11/17 11:14:19;;;;;;;;;;;;;;;-144.99;97.32;52576.50;5040363;28;19993;-70
2022/11/17 11:16:46;;;;;;;;;;;;;;;-144.99;97.43;52570.38;5034630;28;19984;-70
2022/11/17 11:19:14;;;;;;;;;;;;;;;-144.99;97.76;52586.69;5029490;28;20072;-71
2022/11/17 11:21:48;;;;;;;;;;;;;;;-144.99;98.19;52580.59;5036708;28;19978;-72
2022/11/17 11:24:21;;;;;;;;;;;;;;;-144.99;97.74;52594.84;5029502;28;19955;-72
2022/11/17 11:26:52;;;;;;;;;;;;;;;-144.99;98.65;52590.78;5027489;28;20422;-73
2022/11/17 11:29:26;;;;;;;;;;;;;;;-144.99;98.56;52598.94;5028513;28;19975;-71
2022/11/17 11:32:00;;;;;;;;;;;;;;;-144.99;99.56;52588.75;5036593;28;20083;-72
2022/11/17 11:34:40;;;;;;;;;;;;;;;-144.99;99.33;52588.75;5021556;28;19945;-72
2022/11/17 11:37:08;;;;;;;;;;;;;;;-144.99;100.00;52570.38;5026183;28;20480;-71
2022/11/17 11:39:43;;;;;;;;;;;;;;;-144.99;100.00;52566.31;5027839;28;19997;-74
2022/11/17 11:42:22;;;;;;;;;;;;;;;-144.99;100.00;52586.69;5032467;28;19954;-71
2022/11/17 11:44:59;;;;;;;;;;;;;;;-144.99;100.00;52582.63;5038703;28;20200;-71
2022/11/17 11:47:35;;;;;;;;;;;;;;;-144.99;100.00;52588.75;5025383;28;19966;-74
2022/11/17 11:50:05;;;;;;;;;;;;;;;-144.99;100.00;52580.59;5008758;28;20346;-74
2022/11/17 11:52:33;;;;;;;;;;;;;;;-144.99;100.00;52554.09;5035323;28;20485;-73
2022/11/17 11:55:03;;;;;;;;;;;;;;;-144.99;100.00;52590.78;5027578;28;20042;-74
2022/11/17 11:57:34;;;;;;;;;;;;;;;-144.99;100.00;52590.78;5034088;28;20004;-73
2022/11/17 12:00:02;;;;;;;;;;;;;;;-144.99;100.00;52623.38;5033087;28;20009;-74
2022/11/17 12:02:31;;;;;;;;;;;;;;;-144.99;100.00;52578.53;5013435;28;20061;-73
2022/11/17 12:05:04;;;;;;;;;;;;;;;-144.99;100.00;52586.69;5019140;28;20023;-76
2022/11/17 12:07:35;;;;;;;;;;;;;;;-144.99;100.00;52550.00;5024102;28;20469;-73
2022/11/17 12:10:06;;;;;;;;;;;;;;;-144.99;100.00;52562.25;5041845;28;19986;-73
2022/11/17 12:12:33;;;;;;;;;;;;;;;-144.99;100.00;52598.94;5028956;28;19969;-73
2022/11/17 12:15:07;;;;;;;;;;;;;;;-144.99;100.00;52570.38;5037338;28;20063;-73
2022/11/17 12:17:34;;;;;;;;;;;;;;;-144.99;100.00;52552.03;5025389;28;19999;-74
2022/11/17 12:20:02;;;;;;;;;;;;;;;-144.99;100.00;52582.63;5037908;28;20013;-72
2022/11/17 12:22:49;;;;;;;;;;;;;;;-144.99;100.00;52586.69;5035116;28;20422;-73
2022/11/17 12:25:18;;;;;;;;;;;;;;;-144.99;100.00;52582.63;5034373;28;19943;-71
2022/11/17 12:27:46;;;;;;;;;;;;;;;-144.99;100.00;52570.38;5029814;28;20030;-72
2022/11/17 12:30:31;;;;;;;;;;;;;;;-144.99;100.00;52570.38;5035400;28;20056;-73
2022/11/17 12:32:58;;;;;;;;;;;;;;;-144.99;100.00;52578.53;5031546;28;19943;-72
2022/11/17 12:35:26;;;;;;;;;;;;;;;-144.99;100.00;52570.38;5025826;28;19975;-74
2022/11/17 12:38:07;;;;;;;;;;;;;;;-144.99;100.00;52568.34;5026534;28;20346;-73
2022/11/17 12:40:45;;;;;;;;;;;;;;;-144.99;100.00;52586.69;5024703;28;19966;-72
2022/11/17 12:43:19;;;;;;;;;;;;;;;-144.99;100.00;52574.47;5025295;28;20414;-73
2022/11/17 12:46:02;;;;;;;;;;;;;;;-144.99;100.00;52566.31;5031762;28;20223;-73
2022/11/17 12:48:30;;;;;;;;;;;;;;;-144.99;100.00;52590.78;5035217;28;19947;-73
2022/11/17 12:51:01;;;;;;;;;;;;;;;-144.99;100.00;52568.34;5036007;28;20315;-72
2022/11/17 12:53:41;;;;;;;;;;;;;;;-144.99;100.00;52592.81;5042293;28;20035;-73
2022/11/17 12:56:25;;;;;;;;;;;;;;;-144.99;100.00;52558.16;5017254;28;19948;-74
2022/11/17 12:58:58;;;;;;;;;;;;;;;-144.99;100.00;52590.78;5028942;28;20364;-73
2022/11/17 13:01:29;;;;;;;;;;;;;;;-144.99;100.00;52578.53;5038265;28;19963;-72
2022/11/17 13:03:59;;;;;;;;;;;;;;;-144.99;100.00;52607.09;5032273;28;19999;-73
2022/11/17 13:06:25;;;;;;;;;;;;;;;-144.99;100.00;52598.94;5032049;28;19980;-71
2022/11/17 13:08:55;;;;;;;;;;;;;;;-144.99;100.00;52590.78;5040287;28;20367;-70
2022/11/17 13:11:22;;;;;;;;;;;;;;;-144.99;100.00;52598.94;5032264;28;20212;-73
2022/11/17 13:13:48;;;;;;;;;;;;;;;-144.99;100.00;52554.09;5036239;28;19975;-73